createdAt,value
2019-04-26T00:00:47.211Z,0.00
2019-04-26T00:01:47.209Z,0.00
2019-04-26T00:02:47.201Z,0.00
2019-04-26T00:03:47.196Z,0.00
2019-04-26T00:04:47.190Z,0.00
2019-04-26T00:05:47.206Z,0.00
2019-04-26T00:06:47.185Z,0.00
2019-04-26T00:07:47.180Z,0.00
2019-04-26T00:08:47.183Z,0.00
2019-04-26T00:09:47.176Z,0.00
2019-04-26T00:10:47.171Z,0.00
2019-04-26T00:11:47.167Z,0.00
2019-04-26T00:12:47.163Z,0.00
2019-04-26T00:13:47.158Z,0.00
2019-04-26T00:14:47.157Z,0.00
2019-04-26T00:15:47.152Z,0.00
2019-04-26T00:16:47.149Z,0.00
2019-04-26T00:17:47.147Z,0.00
2019-04-26T00:18:47.144Z,0.00
2019-04-26T00:19:47.136Z,0.00
2019-04-26T00:20:47.136Z,0.00
2019-04-26T00:21:47.129Z,0.00
2019-04-26T00:22:47.128Z,0.00
2019-04-26T00:23:47.120Z,0.00
2019-04-26T00:24:47.117Z,0.00
2019-04-26T00:25:47.124Z,0.00
2019-04-26T00:26:47.114Z,0.00
2019-04-26T00:27:47.107Z,0.00
2019-04-26T00:28:47.109Z,0.00
2019-04-26T00:29:47.102Z,0.00
2019-04-26T00:30:47.098Z,0.00
2019-04-26T00:31:47.092Z,0.00
2019-04-26T00:32:47.088Z,0.00
2019-04-26T00:33:47.090Z,0.00
2019-04-26T00:34:47.081Z,0.00
2019-04-26T00:35:48.158Z,0.00
2019-04-26T00:36:47.076Z,0.00
2019-04-26T00:37:47.074Z,0.00
2019-04-26T00:38:47.073Z,0.00
2019-04-26T00:39:47.070Z,0.00
2019-04-26T00:40:47.059Z,0.00
2019-04-26T00:41:47.057Z,0.00
2019-04-26T00:42:47.052Z,0.00
2019-04-26T00:43:47.082Z,0.00
2019-04-26T00:44:47.049Z,0.00
2019-04-26T00:45:47.040Z,0.00
2019-04-26T00:46:47.042Z,0.00
2019-04-26T00:47:47.041Z,0.00
2019-04-26T00:48:47.034Z,0.00
2019-04-26T00:49:47.029Z,0.00
2019-04-26T00:50:47.025Z,0.00
2019-04-26T00:51:47.020Z,0.00
2019-04-26T00:52:47.098Z,0.00
2019-04-26T00:53:47.015Z,0.00
2019-04-26T00:54:47.014Z,0.00
2019-04-26T00:55:47.010Z,0.00
2019-04-26T00:56:47.002Z,0.00
2019-04-26T00:57:47.004Z,0.00
2019-04-26T00:58:47.004Z,0.00
2019-04-26T00:59:46.994Z,0.00
2019-04-26T01:00:46.986Z,0.00
2019-04-26T01:01:46.988Z,0.00
2019-04-26T01:02:46.984Z,0.00
2019-04-26T01:03:46.976Z,0.00
2019-04-26T01:04:46.971Z,0.00
2019-04-26T01:05:59.230Z,0.00
2019-04-26T01:06:46.965Z,0.00
2019-04-26T01:07:46.965Z,0.00
2019-04-26T01:08:46.962Z,0.00
2019-04-26T01:09:46.958Z,0.00
2019-04-26T01:10:46.950Z,0.00
2019-04-26T01:11:46.953Z,0.00
2019-04-26T01:12:46.942Z,0.00
2019-04-26T01:13:46.942Z,0.00
2019-04-26T01:14:46.938Z,0.00
2019-04-26T01:15:46.929Z,0.00
2019-04-26T01:16:46.930Z,0.00
2019-04-26T01:17:46.924Z,0.00
2019-04-26T01:18:46.919Z,0.00
2019-04-26T01:19:46.915Z,0.00
2019-04-26T01:20:46.912Z,0.00
2019-04-26T01:21:46.911Z,0.00
2019-04-26T01:22:46.905Z,0.00
2019-04-26T01:23:46.898Z,0.00
2019-04-26T01:24:46.899Z,0.00
2019-04-26T01:25:46.901Z,0.00
2019-04-26T01:26:46.894Z,0.00
2019-04-26T01:27:46.879Z,0.00
2019-04-26T01:28:46.880Z,0.00
2019-04-26T01:29:46.871Z,0.00
2019-04-26T01:30:46.870Z,0.00
2019-04-26T01:31:46.870Z,0.00
2019-04-26T01:32:46.861Z,0.00
2019-04-26T01:33:46.862Z,0.00
2019-04-26T01:34:46.853Z,0.00
2019-04-26T01:35:46.848Z,0.00
2019-04-26T01:36:46.846Z,0.00
2019-04-26T01:37:46.841Z,0.00
2019-04-26T01:38:46.839Z,0.00
2019-04-26T01:39:46.835Z,0.00
2019-04-26T01:40:46.828Z,0.00
2019-04-26T01:41:46.824Z,0.00
2019-04-26T01:42:46.820Z,0.00
2019-04-26T01:43:46.819Z,0.00
2019-04-26T01:44:46.812Z,0.00
2019-04-26T01:45:46.807Z,0.00
2019-04-26T01:46:46.808Z,0.00
2019-04-26T01:47:46.798Z,0.00
2019-04-26T01:48:46.802Z,0.00
2019-04-26T01:49:46.796Z,0.00
2019-04-26T01:50:46.805Z,0.00
2019-04-26T01:51:46.786Z,0.00
2019-04-26T01:52:46.783Z,0.00
2019-04-26T01:53:46.776Z,0.00
2019-04-26T01:54:46.768Z,0.00
2019-04-26T01:55:46.771Z,0.00
2019-04-26T01:56:46.765Z,0.00
2019-04-26T01:57:46.763Z,0.00
2019-04-26T01:58:46.817Z,0.00
2019-04-26T01:59:46.753Z,0.00
2019-04-26T02:00:46.750Z,0.00
2019-04-26T02:01:46.739Z,0.00
2019-04-26T02:02:46.770Z,0.00
2019-04-26T02:03:46.731Z,0.00
2019-04-26T02:04:46.725Z,0.00
2019-04-26T02:05:46.729Z,0.00
2019-04-26T02:06:46.720Z,0.00
2019-04-26T02:07:46.717Z,0.00
2019-04-26T02:08:46.712Z,0.00
2019-04-26T02:09:46.708Z,0.00
2019-04-26T02:10:46.708Z,0.00
2019-04-26T02:11:46.699Z,0.00
2019-04-26T02:12:46.698Z,0.00
2019-04-26T02:13:46.692Z,0.00
2019-04-26T02:14:46.685Z,0.00
2019-04-26T02:15:46.688Z,0.00
2019-04-26T02:16:46.679Z,0.00
2019-04-26T02:17:46.675Z,0.00
2019-04-26T02:18:46.724Z,0.00
2019-04-26T02:19:46.670Z,0.00
2019-04-26T02:20:46.661Z,0.00
2019-04-26T02:21:46.662Z,0.00
2019-04-26T02:22:46.658Z,0.00
2019-04-26T02:23:46.648Z,0.00
2019-04-26T02:24:46.644Z,0.00
2019-04-26T02:25:46.639Z,0.00
2019-04-26T02:26:46.640Z,0.00
2019-04-26T02:27:46.631Z,0.00
2019-04-26T02:28:46.633Z,0.00
2019-04-26T02:29:46.632Z,0.00
2019-04-26T02:30:46.622Z,0.00
2019-04-26T02:31:46.622Z,0.00
2019-04-26T02:32:46.610Z,0.00
2019-04-26T02:33:46.610Z,0.00
2019-04-26T02:34:46.608Z,0.00
2019-04-26T02:35:46.607Z,0.00
2019-04-26T02:36:57.006Z,0.00
2019-04-26T02:37:46.595Z,0.00
2019-04-26T02:38:46.598Z,0.00
2019-04-26T02:39:46.589Z,0.00
2019-04-26T02:40:46.577Z,0.00
2019-04-26T02:41:46.578Z,0.00
2019-04-26T02:42:46.587Z,0.00
2019-04-26T02:43:46.568Z,0.00
2019-04-26T02:44:46.569Z,0.00
2019-04-26T02:45:46.561Z,0.00
2019-04-26T02:46:46.556Z,0.00
2019-04-26T02:47:46.550Z,0.00
2019-04-26T02:48:46.547Z,0.00
2019-04-26T02:49:46.546Z,0.00
2019-04-26T02:50:46.538Z,0.00
2019-04-26T02:51:46.536Z,0.00
2019-04-26T02:52:46.535Z,0.00
2019-04-26T02:53:46.531Z,0.00
2019-04-26T02:54:46.524Z,0.00
2019-04-26T02:55:46.519Z,0.00
2019-04-26T02:56:46.516Z,0.00
2019-04-26T02:57:46.509Z,0.00
2019-04-26T02:58:46.505Z,0.00
2019-04-26T02:59:46.505Z,0.00
2019-04-26T03:00:46.498Z,0.00
2019-04-26T03:01:46.489Z,0.00
2019-04-26T03:02:46.487Z,0.00
2019-04-26T03:03:46.515Z,0.00
2019-04-26T03:04:46.485Z,0.00
2019-04-26T03:05:46.483Z,0.00
2019-04-26T03:07:02.501Z,0.00
2019-04-26T03:07:46.473Z,0.00
2019-04-26T03:08:46.469Z,0.00
2019-04-26T03:09:46.461Z,0.00
2019-04-26T03:10:46.460Z,0.00
2019-04-26T03:11:46.464Z,0.00
2019-04-26T03:12:46.449Z,0.00
2019-04-26T03:13:46.449Z,0.00
2019-04-26T03:14:46.438Z,0.00
2019-04-26T03:15:46.432Z,0.00
2019-04-26T03:16:46.434Z,0.00
2019-04-26T03:17:46.427Z,0.00
2019-04-26T03:18:46.425Z,0.00
2019-04-26T03:19:46.421Z,0.00
2019-04-26T03:20:46.421Z,0.00
2019-04-26T03:21:46.409Z,0.00
2019-04-26T03:22:46.408Z,0.00
2019-04-26T03:23:57.474Z,0.00
2019-04-26T03:24:48.709Z,0.00
2019-04-26T03:25:46.395Z,0.00
2019-04-26T03:26:46.387Z,0.00
2019-04-26T03:27:46.391Z,0.00
2019-04-26T03:28:46.377Z,0.00
2019-04-26T03:29:46.384Z,0.00
2019-04-26T03:30:52.372Z,0.00
2019-04-26T03:31:53.340Z,0.00
2019-04-26T03:32:50.845Z,0.00
2019-04-26T03:33:53.224Z,0.00
2019-04-26T03:34:53.590Z,0.00
2019-04-26T03:35:56.387Z,0.00
2019-04-26T03:36:46.349Z,0.00
2019-04-26T03:37:46.345Z,0.00
2019-04-26T03:38:46.344Z,0.00
2019-04-26T03:39:46.340Z,0.00
2019-04-26T03:40:46.331Z,0.00
2019-04-26T03:41:46.329Z,0.00
2019-04-26T03:42:46.326Z,0.00
2019-04-26T03:43:46.321Z,4.00
2019-04-26T03:44:46.311Z,4.00
2019-04-26T03:45:46.315Z,4.00
2019-04-26T03:46:46.314Z,0.00
2019-04-26T03:47:46.300Z,4.00
2019-04-26T03:48:46.302Z,4.00
2019-04-26T03:49:46.294Z,4.00
2019-04-26T03:50:46.291Z,4.00
2019-04-26T03:51:46.290Z,8.00
2019-04-26T03:52:46.283Z,4.00
2019-04-26T03:53:46.299Z,8.00
2019-04-26T03:54:46.275Z,8.00
2019-04-26T03:55:46.269Z,8.00
2019-04-26T03:56:46.263Z,8.00
2019-04-26T03:57:46.268Z,12.00
2019-04-26T03:58:46.262Z,12.00
2019-04-26T03:59:46.251Z,20.00
2019-04-26T04:00:47.089Z,16.00
2019-04-26T04:01:46.339Z,16.00
2019-04-26T04:02:46.905Z,12.00
2019-04-26T04:03:47.792Z,16.00
2019-04-26T04:04:46.728Z,20.00
2019-04-26T04:05:47.785Z,24.00
2019-04-26T04:07:02.476Z,24.00
2019-04-26T04:07:51.260Z,32.00
2019-04-26T04:08:47.908Z,32.00
2019-04-26T04:09:46.780Z,36.00
2019-04-26T04:10:47.724Z,44.00
2019-04-26T04:11:47.520Z,44.00
2019-04-26T04:12:47.693Z,40.00
2019-04-26T04:13:50.468Z,36.00
2019-04-26T04:14:47.155Z,36.00
2019-04-26T04:15:46.773Z,40.00
2019-04-26T04:16:48.421Z,44.00
2019-04-26T04:17:48.268Z,52.00
2019-04-26T04:18:47.620Z,68.00
2019-04-26T04:19:47.445Z,84.00
2019-04-26T04:20:46.280Z,96.00
2019-04-26T04:21:47.066Z,104.00
2019-04-26T04:22:47.866Z,108.00
2019-04-26T04:23:47.190Z,120.00
2019-04-26T04:24:46.956Z,124.00
2019-04-26T04:25:47.665Z,128.00
2019-04-26T04:26:46.779Z,128.00
2019-04-26T04:27:47.884Z,132.00
2019-04-26T04:28:47.850Z,132.00
2019-04-26T04:29:51.212Z,128.00
2019-04-26T04:30:47.754Z,120.00
2019-04-26T04:31:47.674Z,120.00
2019-04-26T04:32:47.615Z,128.00
2019-04-26T04:33:47.851Z,140.00
2019-04-26T04:34:48.190Z,160.00
2019-04-26T04:35:47.891Z,180.00
2019-04-26T04:36:48.944Z,200.00
2019-04-26T04:38:06.699Z,228.00
2019-04-26T04:38:47.862Z,252.00
2019-04-26T04:39:47.835Z,272.00
2019-04-26T04:40:47.218Z,296.00
2019-04-26T04:41:46.997Z,328.00
2019-04-26T04:42:47.888Z,364.00
2019-04-26T04:43:48.764Z,400.00
2019-04-26T04:44:47.789Z,440.00
2019-04-26T04:45:47.596Z,484.00
2019-04-26T04:46:49.174Z,536.00
2019-04-26T04:47:49.226Z,596.00
2019-04-26T04:48:48.151Z,660.00
2019-04-26T04:49:47.016Z,744.00
2019-04-26T04:50:47.526Z,856.00
2019-04-26T04:51:46.900Z,1008.00
2019-04-26T04:52:46.407Z,1180.00
2019-04-26T04:53:46.500Z,1376.00
2019-04-26T04:55:00.817Z,1572.00
2019-04-26T04:55:46.313Z,1772.00
2019-04-26T04:56:46.011Z,1964.00
2019-04-26T04:57:46.013Z,2144.00
2019-04-26T04:58:46.341Z,2292.00
2019-04-26T04:59:46.150Z,2392.00
2019-04-26T05:00:47.142Z,2480.00
2019-04-26T05:01:46.296Z,2532.00
2019-04-26T05:02:46.695Z,2476.00
2019-04-26T05:03:46.948Z,2344.00
2019-04-26T05:04:46.843Z,2124.00
2019-04-26T05:05:46.905Z,1972.00
2019-04-26T05:06:46.941Z,1900.00
2019-04-26T05:07:45.971Z,1884.00
2019-04-26T05:08:48.862Z,1876.00
2019-04-26T05:09:45.959Z,1808.00
2019-04-26T05:10:45.953Z,1704.00
2019-04-26T05:11:45.951Z,1708.00
2019-04-26T05:12:45.946Z,1708.00
2019-04-26T05:13:46.360Z,1684.00
2019-04-26T05:14:46.209Z,1664.00
2019-04-26T05:15:46.376Z,1692.00
2019-04-26T05:16:46.547Z,1712.00
2019-04-26T05:17:46.187Z,1680.00
2019-04-26T05:18:46.579Z,1656.00
2019-04-26T05:19:46.841Z,1708.00
2019-04-26T05:20:46.957Z,1896.00
2019-04-26T05:21:46.671Z,2076.00
2019-04-26T05:22:47.233Z,2160.00
2019-04-26T05:23:47.096Z,2160.00
2019-04-26T05:24:47.052Z,2108.00
2019-04-26T05:25:46.889Z,2044.00
2019-04-26T05:26:46.129Z,1948.00
2019-04-26T05:27:46.872Z,1812.00
2019-04-26T05:28:46.256Z,1744.00
2019-04-26T05:29:46.605Z,1768.00
2019-04-26T05:30:46.613Z,1848.00
2019-04-26T05:31:47.084Z,1908.00
2019-04-26T05:32:47.119Z,2052.00
2019-04-26T05:33:46.149Z,2240.00
2019-04-26T05:34:46.411Z,2444.00
2019-04-26T05:35:46.229Z,2608.00
2019-04-26T05:36:46.309Z,2680.00
2019-04-26T05:37:46.735Z,2700.00
2019-04-26T05:38:47.799Z,2644.00
2019-04-26T05:39:47.722Z,2888.00
2019-04-26T05:40:45.821Z,3156.00
2019-04-26T05:41:45.819Z,3276.00
2019-04-26T05:42:45.817Z,3152.00
2019-04-26T05:43:45.812Z,2984.00
2019-04-26T05:44:45.808Z,2920.00
2019-04-26T05:45:45.804Z,2972.00
2019-04-26T05:46:45.805Z,3012.00
2019-04-26T05:47:45.796Z,2848.00
2019-04-26T05:48:45.793Z,2512.00
2019-04-26T05:49:45.786Z,2232.00
2019-04-26T05:50:45.784Z,1988.00
2019-04-26T05:51:45.783Z,1852.00
2019-04-26T05:52:45.778Z,1772.00
2019-04-26T05:53:45.769Z,1744.00
2019-04-26T05:54:45.765Z,1772.00
2019-04-26T05:55:45.759Z,1876.00
2019-04-26T05:56:45.759Z,2032.00
2019-04-26T05:57:45.752Z,2144.00
2019-04-26T05:58:45.749Z,2164.00
2019-04-26T05:59:45.751Z,2072.00
2019-04-26T06:00:45.745Z,2004.00
2019-04-26T06:01:45.733Z,2032.00
2019-04-26T06:02:45.732Z,2140.00
2019-04-26T06:03:45.734Z,2324.00
2019-04-26T06:04:45.721Z,2492.00
2019-04-26T06:05:45.724Z,2604.00
2019-04-26T06:06:45.712Z,2600.00
2019-04-26T06:07:45.708Z,2540.00
2019-04-26T06:08:45.708Z,2556.00
2019-04-26T06:09:45.705Z,2624.00
2019-04-26T06:10:45.698Z,2732.00
2019-04-26T06:11:45.699Z,2668.00
2019-04-26T06:12:45.686Z,2492.00
2019-04-26T06:13:45.686Z,2312.00
2019-04-26T06:14:45.680Z,2240.00
2019-04-26T06:15:45.726Z,2136.00
2019-04-26T06:16:45.669Z,1988.00
2019-04-26T06:17:45.669Z,1852.00
2019-04-26T06:18:45.665Z,1732.00
2019-04-26T06:19:45.661Z,1728.00
2019-04-26T06:20:45.652Z,1808.00
2019-04-26T06:21:45.655Z,1880.00
2019-04-26T06:22:45.650Z,1900.00
2019-04-26T06:23:45.639Z,1920.00
2019-04-26T06:24:45.639Z,1980.00
2019-04-26T06:25:45.633Z,2032.00
2019-04-26T06:26:45.626Z,2088.00
2019-04-26T06:27:45.627Z,2144.00
2019-04-26T06:28:45.626Z,2184.00
2019-04-26T06:29:45.613Z,2208.00
2019-04-26T06:30:45.845Z,2196.00
2019-04-26T06:31:45.607Z,2220.00
2019-04-26T06:32:56.172Z,2256.00
2019-04-26T06:33:45.595Z,2220.00
2019-04-26T06:34:45.595Z,2152.00
2019-04-26T06:35:45.585Z,2100.00
2019-04-26T06:36:45.617Z,2068.00
2019-04-26T06:37:45.576Z,2128.00
2019-04-26T06:38:45.579Z,2292.00
2019-04-26T06:39:45.572Z,2520.00
2019-04-26T06:40:45.561Z,2736.00
2019-04-26T06:41:45.558Z,2836.00
2019-04-26T06:42:45.560Z,2748.00
2019-04-26T06:43:45.556Z,2460.00
2019-04-26T06:44:45.546Z,2104.00
2019-04-26T06:45:45.542Z,1828.00
2019-04-26T06:46:47.496Z,1652.00
2019-04-26T06:47:45.535Z,1576.00
2019-04-26T06:48:45.527Z,1584.00
2019-04-26T06:49:45.524Z,1656.00
2019-04-26T06:50:45.523Z,1736.00
2019-04-26T06:51:45.522Z,1804.00
2019-04-26T06:52:45.506Z,1896.00
2019-04-26T06:53:45.508Z,1984.00
2019-04-26T06:54:45.498Z,2072.00
2019-04-26T06:55:45.495Z,2208.00
2019-04-26T06:56:45.488Z,2372.00
2019-04-26T06:57:45.485Z,2524.00
2019-04-26T06:58:45.485Z,2748.00
2019-04-26T06:59:45.478Z,3072.00
2019-04-26T07:00:45.469Z,3484.00
2019-04-26T07:01:45.467Z,3928.00
2019-04-26T07:02:45.463Z,4328.00
2019-04-26T07:03:45.462Z,4712.00
2019-04-26T07:04:45.452Z,5112.00
2019-04-26T07:05:45.460Z,5528.00
2019-04-26T07:06:45.445Z,5908.00
2019-04-26T07:07:45.439Z,6184.00
2019-04-26T07:08:56.716Z,6364.00
2019-04-26T07:09:45.431Z,6632.00
2019-04-26T07:10:45.486Z,6984.00
2019-04-26T07:11:45.424Z,7344.00
2019-04-26T07:12:45.416Z,7768.00
2019-04-26T07:13:45.413Z,7932.00
2019-04-26T07:14:45.406Z,7808.00
2019-04-26T07:15:45.401Z,7444.00
2019-04-26T07:16:45.405Z,6956.00
2019-04-26T07:17:45.395Z,6668.00
2019-04-26T07:18:45.392Z,6648.00
2019-04-26T07:19:45.390Z,6760.00
2019-04-26T07:20:45.384Z,6752.00
2019-04-26T07:21:45.380Z,6516.00
2019-04-26T07:22:45.374Z,6124.00
2019-04-26T07:23:45.376Z,5864.00
2019-04-26T07:24:45.371Z,5720.00
2019-04-26T07:25:45.362Z,5668.00
2019-04-26T07:26:45.359Z,5816.00
2019-04-26T07:27:45.356Z,6300.00
2019-04-26T07:28:45.355Z,6720.00
2019-04-26T07:29:45.343Z,7056.00
2019-04-26T07:30:45.341Z,7264.00
2019-04-26T07:31:45.340Z,7232.00
2019-04-26T07:32:45.337Z,7468.00
2019-04-26T07:33:45.331Z,7676.00
2019-04-26T07:34:45.326Z,7636.00
2019-04-26T07:35:45.322Z,7172.00
2019-04-26T07:36:45.321Z,6480.00
2019-04-26T07:37:45.313Z,5668.00
2019-04-26T07:38:45.306Z,5188.00
2019-04-26T07:39:45.306Z,4980.00
2019-04-26T07:40:45.296Z,5172.00
2019-04-26T07:41:45.292Z,5424.00
2019-04-26T07:42:45.291Z,5416.00
2019-04-26T07:43:45.286Z,5180.00
2019-04-26T07:44:45.278Z,4808.00
2019-04-26T07:45:45.277Z,4572.00
2019-04-26T07:46:45.273Z,4648.00
2019-04-26T07:47:45.269Z,4984.00
2019-04-26T07:48:45.268Z,5368.00
2019-04-26T07:49:45.260Z,5680.00
2019-04-26T07:50:45.259Z,5996.00
2019-04-26T07:51:45.251Z,6504.00
2019-04-26T07:52:45.246Z,7072.00
2019-04-26T07:53:45.249Z,7584.00
2019-04-26T07:54:45.294Z,7828.00
2019-04-26T07:55:45.239Z,7160.00
2019-04-26T07:56:45.235Z,7088.00
2019-04-26T07:57:45.224Z,7016.00
2019-04-26T07:58:45.225Z,7312.00
2019-04-26T07:59:45.219Z,5828.00
2019-04-26T08:00:45.346Z,4920.00
2019-04-26T08:01:45.215Z,5468.00
2019-04-26T08:02:45.214Z,5276.00
2019-04-26T08:03:45.234Z,5800.00
2019-04-26T08:04:45.200Z,6008.00
2019-04-26T08:05:45.193Z,5772.00
2019-04-26T08:06:45.192Z,5960.00
2019-04-26T08:07:45.185Z,6412.00
2019-04-26T08:08:45.181Z,6924.00
2019-04-26T08:09:47.309Z,6408.00
2019-04-26T08:10:45.181Z,5760.00
2019-04-26T08:11:45.176Z,4848.00
2019-04-26T08:12:45.165Z,4876.00
2019-04-26T08:13:45.165Z,5620.00
2019-04-26T08:14:45.160Z,5312.00
2019-04-26T08:15:45.158Z,6400.00
2019-04-26T08:16:45.155Z,8188.00
2019-04-26T08:17:45.144Z,8716.00
2019-04-26T08:18:45.140Z,10036.00
2019-04-26T08:19:45.143Z,10716.00
2019-04-26T08:20:48.062Z,10560.00
2019-04-26T08:21:48.150Z,10748.00
2019-04-26T08:22:45.130Z,10872.00
2019-04-26T08:23:45.125Z,10712.00
2019-04-26T08:24:45.126Z,9752.00
2019-04-26T08:25:45.116Z,9168.00
2019-04-26T08:26:45.117Z,9188.00
2019-04-26T08:27:45.116Z,8920.00
2019-04-26T08:28:45.109Z,9072.00
2019-04-26T08:29:45.102Z,9240.00
2019-04-26T08:30:46.197Z,9196.00
2019-04-26T08:31:45.097Z,8468.00
2019-04-26T08:32:46.786Z,8160.00
2019-04-26T08:33:48.994Z,7676.00
2019-04-26T08:34:45.089Z,6164.00
2019-04-26T08:35:48.925Z,6036.00
2019-04-26T08:36:45.081Z,6584.00
2019-04-26T08:37:45.077Z,6872.00
2019-04-26T08:38:45.068Z,7492.00
2019-04-26T08:39:48.820Z,8176.00
2019-04-26T08:40:45.062Z,8048.00
2019-04-26T08:41:45.063Z,7068.00
2019-04-26T08:42:45.058Z,5936.00
2019-04-26T08:43:45.053Z,5412.00
2019-04-26T08:44:45.049Z,5980.00
2019-04-26T08:46:01.522Z,6276.00
2019-04-26T08:46:45.045Z,7036.00
2019-04-26T08:47:45.928Z,7656.00
2019-04-26T08:48:45.030Z,8664.00
2019-04-26T08:49:45.030Z,8852.00
2019-04-26T08:50:45.931Z,9000.00
2019-04-26T08:51:45.029Z,9484.00
2019-04-26T08:52:45.029Z,9444.00
2019-04-26T08:53:45.020Z,9520.00
2019-04-26T08:54:45.012Z,9768.00
2019-04-26T08:55:45.009Z,9540.00
2019-04-26T08:56:45.006Z,9892.00
2019-04-26T08:57:45.001Z,9764.00
2019-04-26T08:58:44.999Z,9476.00
2019-04-26T08:59:44.992Z,9016.00
2019-04-26T09:00:44.989Z,8632.00
2019-04-26T09:01:45.545Z,8496.00
2019-04-26T09:02:44.986Z,8576.00
2019-04-26T09:03:44.984Z,8868.00
2019-04-26T09:04:44.983Z,9488.00
2019-04-26T09:05:45.612Z,10540.00
2019-04-26T09:06:44.976Z,11940.00
2019-04-26T09:07:44.971Z,13136.00
2019-04-26T09:08:45.130Z,13700.00
2019-04-26T09:09:56.517Z,14268.00
2019-04-26T09:10:44.963Z,14056.00
2019-04-26T09:11:44.956Z,14128.00
2019-04-26T09:12:44.952Z,15308.00
2019-04-26T09:13:44.952Z,16800.00
2019-04-26T09:14:44.953Z,17824.00
2019-04-26T09:15:44.946Z,17888.00
2019-04-26T09:16:50.466Z,17408.00
2019-04-26T09:17:44.945Z,16456.00
2019-04-26T09:18:48.442Z,15780.00
2019-04-26T09:19:44.942Z,15244.00
2019-04-26T09:20:44.937Z,15304.00
2019-04-26T09:21:47.397Z,15456.00
2019-04-26T09:22:44.931Z,16304.00
2019-04-26T09:23:50.830Z,16484.00
2019-04-26T09:24:45.489Z,17216.00
2019-04-26T09:25:44.920Z,17376.00
2019-04-26T09:26:46.650Z,17536.00
2019-04-26T09:27:44.916Z,17120.00
2019-04-26T09:28:44.916Z,16604.00
2019-04-26T09:29:44.915Z,16376.00
2019-04-26T09:30:47.570Z,16188.00
2019-04-26T09:31:44.909Z,15020.00
2019-04-26T09:32:44.915Z,14212.00
2019-04-26T09:33:44.906Z,15948.00
2019-04-26T09:34:44.913Z,17632.00
2019-04-26T09:35:44.909Z,17984.00
2019-04-26T09:36:44.900Z,17408.00
2019-04-26T09:37:44.908Z,17344.00
2019-04-26T09:38:44.898Z,18112.00
2019-04-26T09:39:44.900Z,16416.00
2019-04-26T09:40:44.908Z,15868.00
2019-04-26T09:41:44.899Z,16304.00
2019-04-26T09:42:44.896Z,17728.00
2019-04-26T09:43:44.895Z,19296.00
2019-04-26T09:44:44.896Z,19488.00
2019-04-26T09:45:44.892Z,18400.00
2019-04-26T09:46:48.521Z,17120.00
2019-04-26T09:47:44.888Z,16204.00
2019-04-26T09:48:44.886Z,16308.00
2019-04-26T09:49:44.894Z,16028.00
2019-04-26T09:50:44.886Z,15284.00
2019-04-26T09:51:44.883Z,15364.00
2019-04-26T09:52:44.886Z,13612.00
2019-04-26T09:53:44.880Z,11892.00
2019-04-26T09:54:44.887Z,12080.00
2019-04-26T09:55:44.886Z,12888.00
2019-04-26T09:56:44.881Z,15556.00
2019-04-26T09:57:44.879Z,15748.00
2019-04-26T09:58:44.883Z,14676.00
2019-04-26T09:59:44.880Z,14636.00
2019-04-26T10:00:48.487Z,13604.00
2019-04-26T10:01:44.877Z,13244.00
2019-04-26T10:02:44.876Z,13664.00
2019-04-26T10:03:44.873Z,13984.00
2019-04-26T10:04:44.869Z,14288.00
2019-04-26T10:05:44.868Z,14316.00
2019-04-26T10:06:44.866Z,14372.00
2019-04-26T10:07:44.864Z,15740.00
2019-04-26T10:08:47.005Z,16800.00
2019-04-26T10:09:44.865Z,15904.00
2019-04-26T10:10:44.858Z,14628.00
2019-04-26T10:11:44.864Z,13468.00
2019-04-26T10:12:44.861Z,13064.00
2019-04-26T10:13:44.859Z,14380.00
2019-04-26T10:14:46.493Z,16864.00
2019-04-26T10:15:44.852Z,18336.00
2019-04-26T10:16:44.852Z,19264.00
2019-04-26T10:17:46.411Z,19104.00
2019-04-26T10:18:44.855Z,21472.00
2019-04-26T10:19:44.846Z,22432.00
2019-04-26T10:20:44.851Z,22272.00
2019-04-26T10:21:44.844Z,22496.00
2019-04-26T10:22:44.844Z,22432.00
2019-04-26T10:23:44.846Z,21664.00
2019-04-26T10:24:44.851Z,20864.00
2019-04-26T10:25:47.326Z,19776.00
2019-04-26T10:26:44.845Z,17792.00
2019-04-26T10:27:44.849Z,16016.00
2019-04-26T10:28:46.829Z,14548.00
2019-04-26T10:29:44.844Z,13416.00
2019-04-26T10:30:44.842Z,13340.00
2019-04-26T10:31:47.613Z,13792.00
2019-04-26T10:32:44.842Z,14280.00
2019-04-26T10:33:44.839Z,14344.00
2019-04-26T10:34:47.418Z,15104.00
2019-04-26T10:35:44.837Z,15712.00
2019-04-26T10:36:44.838Z,15020.00
2019-04-26T10:37:48.062Z,15264.00
2019-04-26T10:38:44.834Z,15264.00
2019-04-26T10:39:44.833Z,14844.00
2019-04-26T10:40:44.829Z,14312.00
2019-04-26T10:41:44.833Z,13404.00
2019-04-26T10:42:44.831Z,13524.00
2019-04-26T10:43:44.828Z,13780.00
2019-04-26T10:44:44.827Z,13916.00
2019-04-26T10:45:45.989Z,13792.00
2019-04-26T10:46:55.055Z,13848.00
2019-04-26T10:47:44.827Z,14696.00
2019-04-26T10:48:45.467Z,16928.00
2019-04-26T10:49:44.836Z,19840.00
2019-04-26T10:50:44.830Z,22208.00
2019-04-26T10:51:44.823Z,21984.00
2019-04-26T10:52:49.686Z,20576.00
2019-04-26T10:53:44.821Z,19168.00
2019-04-26T10:54:46.097Z,17696.00
2019-04-26T10:55:46.574Z,15344.00
2019-04-26T10:56:44.816Z,13652.00
2019-04-26T10:57:44.811Z,12816.00
2019-04-26T10:58:44.819Z,12124.00
2019-04-26T10:59:45.529Z,11576.00
2019-04-26T11:00:48.335Z,10908.00
2019-04-26T11:01:44.810Z,10592.00
2019-04-26T11:02:44.809Z,10712.00
2019-04-26T11:03:44.808Z,10872.00
2019-04-26T11:04:44.810Z,11012.00
2019-04-26T11:05:44.802Z,11808.00
2019-04-26T11:06:44.805Z,12468.00
2019-04-26T11:07:44.799Z,13244.00
2019-04-26T11:08:44.804Z,13884.00
2019-04-26T11:09:44.793Z,14484.00
2019-04-26T11:10:48.799Z,15000.00
2019-04-26T11:11:44.798Z,14640.00
2019-04-26T11:12:44.856Z,13520.00
2019-04-26T11:13:44.790Z,13480.00
2019-04-26T11:14:44.791Z,12088.00
2019-04-26T11:15:44.784Z,10244.00
2019-04-26T11:16:44.788Z,10604.00
2019-04-26T11:17:46.009Z,12212.00
2019-04-26T11:18:44.780Z,13188.00
2019-04-26T11:19:44.778Z,13540.00
2019-04-26T11:20:45.587Z,13684.00
2019-04-26T11:21:44.777Z,13724.00
2019-04-26T11:22:44.777Z,13432.00
2019-04-26T11:23:45.571Z,13336.00
2019-04-26T11:24:44.766Z,13200.00
2019-04-26T11:25:44.765Z,13260.00
2019-04-26T11:26:44.768Z,13720.00
2019-04-26T11:27:48.502Z,14752.00
2019-04-26T11:28:44.766Z,15344.00
2019-04-26T11:29:53.619Z,14872.00
2019-04-26T11:30:48.061Z,13864.00
2019-04-26T11:31:44.761Z,13268.00
2019-04-26T11:32:45.814Z,12552.00
2019-04-26T11:33:45.294Z,11740.00
2019-04-26T11:34:44.749Z,11500.00
2019-04-26T11:35:44.768Z,11632.00
2019-04-26T11:36:44.894Z,11744.00
2019-04-26T11:37:46.271Z,11752.00
2019-04-26T11:38:44.756Z,11788.00
2019-04-26T11:39:44.755Z,11948.00
2019-04-26T11:40:49.806Z,12164.00
2019-04-26T11:41:44.735Z,12380.00
2019-04-26T11:42:45.759Z,12396.00
2019-04-26T11:43:44.731Z,12224.00
2019-04-26T11:44:44.933Z,12004.00
2019-04-26T11:45:45.323Z,11832.00
2019-04-26T11:46:45.472Z,11812.00
2019-04-26T11:47:55.407Z,12168.00
2019-04-26T11:48:44.723Z,12928.00
2019-04-26T11:49:44.718Z,14360.00
2019-04-26T11:50:44.718Z,15600.00
2019-04-26T11:51:44.722Z,15204.00
2019-04-26T11:52:44.715Z,13172.00
2019-04-26T11:53:46.163Z,11736.00
2019-04-26T11:54:44.710Z,13524.00
2019-04-26T11:55:44.712Z,16800.00
2019-04-26T11:56:44.711Z,17568.00
2019-04-26T11:57:47.535Z,19648.00
2019-04-26T11:58:44.706Z,21632.00
2019-04-26T11:59:44.712Z,23424.00
2019-04-26T12:00:44.708Z,23744.00
2019-04-26T12:01:44.703Z,20448.00
2019-04-26T12:02:46.325Z,18816.00
2019-04-26T12:03:44.699Z,17536.00
2019-04-26T12:04:44.698Z,20096.00
2019-04-26T12:05:44.696Z,26592.00
2019-04-26T12:06:44.696Z,37600.00
2019-04-26T12:07:44.699Z,33760.00
2019-04-26T12:08:44.700Z,48160.00
2019-04-26T12:09:44.700Z,32096.00
2019-04-26T12:10:45.847Z,38720.00
2019-04-26T12:11:50.902Z,49792.00
2019-04-26T12:12:47.171Z,40352.00
2019-04-26T12:13:44.702Z,42112.00
2019-04-26T12:14:44.710Z,33120.00
2019-04-26T12:15:45.421Z,22944.00
2019-04-26T12:16:49.490Z,21696.00
2019-04-26T12:17:57.902Z,51296.00
2019-04-26T12:18:45.716Z,32160.00
2019-04-26T12:19:48.235Z,60128.00
2019-04-26T12:20:44.715Z,49184.00
2019-04-26T12:21:44.721Z,40192.00
2019-04-26T12:22:44.722Z,28224.00
2019-04-26T12:23:44.723Z,30880.00